Time;durP1;ratioP1;P1;durP2;ratioP2;P2;SDS_P1;SDS_P2;PMS_P1;PMS_P2;Temp;Humidity;BMP_temperature;BMP_pressure;BME280_temperature;BME280_humidity;BME280_pressure;Samples;Min_cycle;Max_cycle;Signal;HPM_P1;HPM_P2
2022/10/24 00:01:13;;;;;;;5.13;3.80;;;;;;;13.77;100.00;99807.50;5083047;28;20748;-76
2022/10/24 00:03:38;;;;;;;6.70;3.77;;;;;;;13.79;100.00;99808.31;5071254;28;20665;-74
2022/10/24 00:06:06;;;;;;;7.37;3.70;;;;;;;13.80;100.00;99801.38;5081976;28;20181;-76
2022/10/24 00:08:33;;;;;;;4.57;3.30;;;;;;;13.79;100.00;99799.66;5080279;28;20192;-75
2022/10/24 00:10:58;;;;;;;5.70;3.47;;;;;;;13.78;100.00;99797.97;5078433;28;20193;-76
2022/10/24 00:13:23;;;;;;;5.03;3.23;;;;;;;13.75;100.00;99798.91;5077479;28;20188;-75
2022/10/24 00:15:49;;;;;;;6.10;3.60;;;;;;;13.75;100.00;99795.44;5076664;28;20256;-75
2022/10/24 00:18:15;;;;;;;7.73;4.20;;;;;;;13.72;100.00;99793.81;5077773;28;20178;-76
2022/10/24 00:20:41;;;;;;;5.57;3.53;;;;;;;13.71;100.00;99779.94;5079331;28;20186;-75
2022/10/24 00:23:06;;;;;;;6.27;3.73;;;;;;;13.71;100.00;99779.94;5082448;28;20251;-76
2022/10/24 00:25:32;;;;;;;3.50;3.20;;;;;;;13.71;100.00;99773.91;5077575;28;20561;-77
2022/10/24 00:27:57;;;;;;;6.00;4.00;;;;;;;13.70;100.00;99772.19;5086011;28;20267;-75
2022/10/24 00:30:22;;;;;;;5.73;3.27;;;;;;;13.70;100.00;99772.19;5076656;28;20215;-75
2022/10/24 00:32:50;;;;;;;5.07;3.50;;;;;;;13.67;100.00;99770.53;5078405;28;20200;-76
2022/10/24 00:35:15;;;;;;;4.07;3.40;;;;;;;13.65;100.00;99768.88;5077992;28;20216;-75
2022/10/24 00:37:41;;;;;;;4.57;3.13;;;;;;;13.62;100.00;99772.41;5077096;28;20203;-75
2022/10/24 00:40:07;;;;;;;4.40;3.30;;;;;;;13.60;100.00;99779.41;5076259;28;20192;-75
2022/10/24 00:42:32;;;;;;;4.47;2.83;;;;;;;13.56;100.00;99775.19;5077706;28;20213;-75
2022/10/24 00:44:57;;;;;;;3.57;3.27;;;;;;;13.54;100.00;99774.38;5073852;28;20216;-75
2022/10/24 00:47:25;;;;;;;5.27;3.47;;;;;;;13.52;100.00;99778.81;5079742;28;20185;-75
2022/10/24 00:50:20;;;;;;;6.97;3.80;;;;;;;13.49;100.00;99784.09;5083461;28;20193;-76
2022/10/24 00:52:46;;;;;;;4.77;3.27;;;;;;;13.46;100.00;99784.16;5069415;28;20770;-76
2022/10/24 00:55:13;;;;;;;4.67;3.23;;;;;;;13.43;100.00;99787.72;5079966;28;20209;-75
2022/10/24 00:57:42;;;;;;;4.10;3.17;;;;;;;13.40;100.00;99793.84;5078705;28;20212;-75
2022/10/24 01:00:12;;;;;;;4.80;3.50;;;;;;;13.40;100.00;99793.00;5077685;28;20194;-75
2022/10/24 01:02:38;;;;;;;5.30;2.93;;;;;;;13.39;100.00;99781.69;5083214;28;20239;-77
2022/10/24 01:05:05;;;;;;;5.60;3.00;;;;;;;13.38;100.00;99784.34;5083375;28;20211;-75
2022/10/24 01:07:36;;;;;;;5.20;3.23;;;;;;;13.36;100.00;99788.75;5084552;28;20189;-75
2022/10/24 01:10:07;;;;;;;5.43;3.17;;;;;;;13.30;100.00;99774.19;5079568;28;20189;-75
2022/10/24 01:12:35;;;;;;;6.40;3.20;;;;;;;13.29;100.00;99763.84;5084702;28;20642;-75
2022/10/24 01:15:13;;;;;;;6.07;3.33;;;;;;;13.26;100.00;99769.94;5081991;28;20236;-75
2022/10/24 01:17:50;;;;;;;4.37;2.93;;;;;;;13.25;100.00;99776.91;5077919;28;20722;-75
2022/10/24 01:20:41;;;;;;;4.47;3.07;;;;;;;13.22;100.00;99773.56;5080765;28;20189;-76
2022/10/24 01:23:35;;;;;;;5.17;3.17;;;;;;;13.17;100.00;99765.88;5071353;28;20216;-75
2022/10/24 01:26:09;;;;;;;4.93;2.90;;;;;;;13.13;100.00;99758.22;5073683;28;20176;-74
2022/10/24 01:28:57;;;;;;;5.43;3.20;;;;;;;13.11;100.00;99761.69;5074138;28;20239;-78
2022/10/24 01:31:38;;;;;;;7.33;3.13;;;;;;;13.13;100.00;99763.41;5070943;28;20228;-76
2022/10/24 01:34:13;;;;;;;4.53;2.83;;;;;;;13.13;100.00;99760.81;5075665;28;20192;-74
2022/10/24 01:36:49;;;;;;;7.90;2.57;;;;;;;13.13;100.00;99753.00;5069222;28;20209;-73
2022/10/24 01:39:18;;;;;;;4.87;3.10;;;;;;;13.13;100.00;99746.09;5084569;28;20213;-75
2022/10/24 01:41:45;;;;;;;4.87;2.83;;;;;;;13.13;100.00;99746.09;5087602;28;20316;-77
2022/10/24 01:44:27;;;;;;;4.50;2.70;;;;;;;13.14;100.00;99745.19;5080348;28;20229;-75
2022/10/24 01:46:57;;;;;;;7.17;2.83;;;;;;;13.14;100.00;99745.19;5073461;28;20274;-76
2022/10/24 01:49:28;;;;;;;4.20;2.80;;;;;;;13.14;100.00;99742.59;5079102;28;20271;-76
2022/10/24 01:51:59;;;;;;;7.37;2.53;;;;;;;13.15;100.00;99746.03;5083140;28;20274;-75
2022/10/24 01:54:25;;;;;;;4.10;2.70;;;;;;;13.14;100.00;99746.91;5076255;28;20665;-77
2022/10/24 01:56:51;;;;;;;6.77;2.93;;;;;;;13.15;100.00;99752.09;5084105;28;20687;-78
2022/10/24 01:59:28;;;;;;;6.37;3.07;;;;;;;13.16;100.00;99751.16;5079335;28;20188;-76
2022/10/24 02:02:07;;;;;;;4.10;2.47;;;;;;;13.16;100.00;99752.94;5072183;28;20204;-75
2022/10/24 02:04:38;;;;;;;2.93;2.33;;;;;;;13.15;100.00;99743.44;5081816;28;20182;-76
2022/10/24 02:07:07;;;;;;;3.87;2.70;;;;;;;13.14;100.00;99741.72;5076007;28;20196;-77
2022/10/24 02:09:35;;;;;;;3.30;2.33;;;;;;;13.13;100.00;99747.81;5078467;28;20192;-75
2022/10/24 02:12:01;;;;;;;2.83;2.50;;;;;;;13.10;100.00;99752.19;5080593;28;20292;-75
2022/10/24 02:14:35;;;;;;;4.80;2.87;;;;;;;13.10;100.00;99736.59;5080605;28;20314;-76
2022/10/24 02:17:02;;;;;;;5.33;2.93;;;;;;;13.09;100.00;99745.28;5077042;28;20188;-76
2022/10/24 02:19:30;;;;;;;4.23;2.40;;;;;;;13.07;100.00;99741.91;5072827;28;20197;-75
2022/10/24 02:22:05;;;;;;;4.30;2.70;;;;;;;13.06;100.00;99748.00;5082080;28;20215;-78
2022/10/24 02:24:47;;;;;;;3.17;2.37;;;;;;;13.08;100.00;99740.16;5081190;28;20206;-75
2022/10/24 02:27:19;;;;;;;3.67;2.33;;;;;;;13.07;100.00;99728.94;5087769;28;20212;-75
2022/10/24 02:29:56;;;;;;;3.53;2.87;;;;;;;13.08;100.00;99733.19;5079929;28;20181;-75
2022/10/24 02:32:28;;;;;;;4.03;2.53;;;;;;;13.10;100.00;99731.41;5074303;28;20587;-75
2022/10/24 02:34:54;;;;;;;3.47;2.50;;;;;;;13.10;100.00;99736.59;5078767;28;20360;-75
2022/10/24 02:37:22;;;;;;;3.50;2.43;;;;;;;13.11;100.00;99738.31;5074530;28;20281;-76
2022/10/24 02:39:48;;;;;;;3.37;2.40;;;;;;;13.09;100.00;99724.50;5081400;28;20230;-75
2022/10/24 02:42:15;;;;;;;3.03;2.37;;;;;;;13.08;100.00;99717.63;5077896;28;20208;-75
2022/10/24 02:44:42;;;;;;;5.73;2.77;;;;;;;13.08;100.00;99719.38;5079455;28;20957;-76
2022/10/24 02:47:11;;;;;;;5.40;2.60;;;;;;;13.05;100.00;99703.88;5083939;28;20200;-75
2022/10/24 02:49:37;;;;;;;5.23;2.40;;;;;;;13.05;100.00;99711.66;5080883;28;20236;-77
2022/10/24 02:52:02;;;;;;;6.53;2.90;;;;;;;13.05;100.00;99715.13;5077190;28;20213;-75
2022/10/24 02:54:28;;;;;;;6.93;2.40;;;;;;;13.06;100.00;99713.38;5079058;28;20222;-76
2022/10/24 02:56:59;;;;;;;4.43;2.53;;;;;;;13.09;100.00;99715.88;5081502;28;20195;-75
2022/10/24 02:59:24;;;;;;;4.87;2.70;;;;;;;13.11;100.00;99712.34;5082554;28;20201;-76
2022/10/24 03:01:50;;;;;;;7.07;3.00;;;;;;;13.13;100.00;99716.63;5083078;28;20204;-76
2022/10/24 03:04:15;;;;;;;6.03;3.20;;;;;;;13.13;100.00;99719.25;5084516;28;20194;-75
2022/10/24 03:06:41;;;;;;;5.57;2.83;;;;;;;13.13;100.00;99724.44;5088054;28;20526;-75
2022/10/24 03:09:06;;;;;;;4.40;2.70;;;;;;;13.13;100.00;99721.84;5082349;28;20218;-76
2022/10/24 03:11:32;;;;;;;4.03;2.50;;;;;;;13.12;100.00;99728.78;5086035;28;20213;-75
2022/10/24 03:13:57;;;;;;;6.07;2.53;;;;;;;13.13;100.00;99740.03;5087398;28;20241;-77
2022/10/24 03:16:23;;;;;;;5.40;2.67;;;;;;;13.12;100.00;99744.38;5079888;28;20272;-78
2022/10/24 03:18:49;;;;;;;3.80;2.40;;;;;;;13.14;100.00;99754.72;5077398;28;20207;-76
2022/10/24 03:21:14;;;;;;;7.43;3.30;;;;;;;13.17;100.00;99749.44;5083155;28;20201;-76
2022/10/24 03:23:39;;;;;;;4.27;2.73;;;;;;;13.18;100.00;99749.38;5075940;28;20190;-75
2022/10/24 03:26:05;;;;;;;5.10;2.67;;;;;;;13.20;100.00;99751.97;5082660;28;20211;-77
2022/10/24 03:28:30;;;;;;;3.27;2.27;;;;;;;13.21;100.00;99754.50;5080576;28;20202;-76
2022/10/24 03:30:55;;;;;;;3.90;2.20;;;;;;;13.20;100.00;99749.38;5087791;28;20251;-76
2022/10/24 03:33:22;;;;;;;5.20;3.17;;;;;;;13.21;100.00;99746.69;5082259;28;20194;-76
2022/10/24 03:35:51;;;;;;;4.77;3.30;;;;;;;13.20;100.00;99746.75;5079818;28;20938;-75
2022/10/24 03:38:16;;;;;;;3.43;2.70;;;;;;;13.18;100.00;99744.19;5071585;28;20189;-76
2022/10/24 03:40:42;;;;;;;3.23;2.57;;;;;;;13.18;100.00;99735.56;5073911;28;20556;-75
2022/10/24 03:43:07;;;;;;;6.47;3.07;;;;;;;13.17;100.00;99745.09;5072267;28;20207;-76
2022/10/24 03:45:33;;;;;;;5.00;2.43;;;;;;;13.16;100.00;99748.56;5076549;28;20948;-77
2022/10/24 03:47:58;;;;;;;4.10;2.60;;;;;;;13.16;100.00;99745.13;5075394;28;20195;-75
2022/10/24 03:50:23;;;;;;;5.87;3.10;;;;;;;13.16;100.00;99758.13;5073060;28;20193;-75
2022/10/24 03:52:49;;;;;;;8.50;3.10;;;;;;;13.13;100.00;99747.81;5073489;28;20290;-76
2022/10/24 03:55:14;;;;;;;5.60;2.70;;;;;;;13.14;100.00;99752.13;5070888;28;20642;-77
2022/10/24 03:57:39;;;;;;;6.67;2.90;;;;;;;13.13;100.00;99751.28;5075620;28;20981;-77
2022/10/24 04:00:05;;;;;;;3.60;2.77;;;;;;;13.14;100.00;99758.19;5071724;28;20181;-76
2022/10/24 04:02:31;;;;;;;3.57;2.77;;;;;;;13.15;100.00;99764.22;5070105;28;21899;-76
2022/10/24 04:04:56;;;;;;;4.93;3.07;;;;;;;13.14;100.00;99768.56;5071955;28;20190;-76
2022/10/24 04:07:22;;;;;;;5.30;2.33;;;;;;;13.14;100.00;99768.56;5075108;28;20193;-77
2022/10/24 04:09:47;;;;;;;2.87;2.60;;;;;;;13.14;100.00;99775.50;5078295;28;20566;-75
2022/10/24 04:12:12;;;;;;;4.87;3.07;;;;;;;13.15;100.00;99780.69;5083665;28;20311;-76
2022/10/24 04:14:38;;;;;;;4.87;2.40;;;;;;;13.16;100.00;99790.13;5081437;28;20218;-76
2022/10/24 04:17:03;;;;;;;3.20;2.43;;;;;;;13.17;100.00;99791.00;5084743;28;20188;-77
2022/10/24 04:19:28;;;;;;;3.23;2.60;;;;;;;13.22;100.00;99786.53;5086993;28;20198;-76
2022/10/24 04:21:54;;;;;;;3.33;2.50;;;;;;;13.25;100.00;99776.91;5088245;28;20246;-75
2022/10/24 04:24:19;;;;;;;3.53;2.37;;;;;;;13.32;100.00;99779.31;5085531;28;20189;-76
2022/10/24 04:26:44;;;;;;;3.37;2.43;;;;;;;13.35;100.00;99776.63;5084967;28;20273;-78
2022/10/24 04:29:10;;;;;;;3.97;2.60;;;;;;;13.40;100.00;99773.03;5088200;28;20204;-78
2022/10/24 04:31:35;;;;;;;3.80;2.43;;;;;;;13.43;100.00;99759.13;5086975;28;20276;-76
2022/10/24 04:34:00;;;;;;;5.20;3.07;;;;;;;13.45;100.00;99759.06;5077786;28;20184;-76
2022/10/24 04:36:26;;;;;;;7.70;3.30;;;;;;;13.45;100.00;99753.88;5081741;28;20211;-75
2022/10/24 04:38:51;;;;;;;4.40;2.93;;;;;;;13.46;100.00;99751.22;5085599;28;20200;-76
2022/10/24 04:41:17;;;;;;;6.30;3.00;;;;;;;13.46;100.00;99766.81;5085427;28;20215;-76
2022/10/24 04:43:42;;;;;;;3.00;2.50;;;;;;;13.49;100.00;99789.28;5081055;28;20207;-75
2022/10/24 04:46:07;;;;;;;9.50;3.67;;;;;;;13.53;100.00;99804.75;5079400;28;20193;-75
2022/10/24 04:48:33;;;;;;;5.90;3.47;;;;;;;13.58;100.00;99815.00;5081997;28;20610;-77
2022/10/24 04:50:59;;;;;;;5.13;3.17;;;;;;;13.62;100.00;99831.34;5086230;28;20302;-75
2022/10/24 04:53:24;;;;;;;7.13;3.80;;;;;;;13.66;100.00;99819.97;5077733;28;20269;-77
2022/10/24 04:55:49;;;;;;;7.13;3.57;;;;;;;13.72;100.00;99820.66;5087431;28;20615;-75
2022/10/24 04:58:15;;;;;;;8.07;3.90;;;;;;;13.78;100.00;99810.97;5087180;28;20195;-75
2022/10/24 05:00:45;;;;;;;5.33;3.80;;;;;;;13.84;100.00;99808.19;5083474;28;20609;-77
2022/10/24 05:03:11;;;;;;;5.73;3.13;;;;;;;13.87;100.00;99801.16;5083705;28;20769;-77
2022/10/24 05:05:36;;;;;;;9.37;3.80;;;;;;;13.90;100.00;99801.94;5084343;28;20235;-77
2022/10/24 05:08:02;;;;;;;6.13;3.77;;;;;;;13.91;100.00;99809.69;5070808;28;20182;-76
2022/10/24 05:10:27;;;;;;;5.83;3.83;;;;;;;13.91;100.00;99817.50;5072327;28;20205;-77
2022/10/24 05:12:52;;;;;;;8.10;3.90;;;;;;;13.93;100.00;99828.72;5075664;28;20210;-75
2022/10/24 05:15:18;;;;;;;6.30;3.83;;;;;;;13.93;100.00;99838.25;5077051;28;20645;-75
2022/10/24 05:17:43;;;;;;;6.53;3.57;;;;;;;13.93;100.00;99841.72;5089819;28;20210;-75
2022/10/24 05:20:09;;;;;;;8.80;4.10;;;;;;;13.96;100.00;99851.19;5082514;28;20268;-76
2022/10/24 05:22:35;;;;;;;7.17;4.30;;;;;;;13.96;100.00;99836.44;5092734;28;20216;-78
2022/10/24 05:25:00;;;;;;;5.87;4.07;;;;;;;13.96;100.00;99826.03;5082366;28;20185;-76
2022/10/24 05:27:26;;;;;;;11.30;4.70;;;;;;;13.97;100.00;99825.13;5094289;28;20196;-75
2022/10/24 05:29:54;;;;;;;8.90;4.97;;;;;;;14.00;100.00;99819.81;5089633;28;20185;-76
2022/10/24 05:32:21;;;;;;;7.20;4.53;;;;;;;14.03;100.00;99811.91;5089125;28;20220;-76
2022/10/24 05:34:47;;;;;;;10.67;5.00;;;;;;;14.11;100.00;99822.09;5082365;28;20225;-74
2022/10/24 05:37:12;;;;;;;10.37;4.43;;;;;;;14.17;100.00;99815.84;5094909;28;20204;-77
2022/10/24 05:39:38;;;;;;;7.27;4.43;;;;;;;14.25;100.00;99815.59;5096563;28;20233;-75
2022/10/24 05:42:04;;;;;;;6.17;3.97;;;;;;;14.31;100.00;99818.84;5097779;28;20711;-75
2022/10/24 05:44:29;;;;;;;7.10;4.20;;;;;;;14.39;100.00;99823.81;5083957;28;20182;-76
2022/10/24 05:46:55;;;;;;;6.30;3.67;;;;;;;14.47;100.00;99797.53;5087649;28;20660;-77
2022/10/24 05:49:21;;;;;;;4.90;3.60;;;;;;;14.52;100.00;99806.06;5089021;28;20230;-75
2022/10/24 05:51:46;;;;;;;7.63;4.00;;;;;;;14.56;100.00;99799.84;5092834;28;20974;-76
2022/10/24 05:54:11;;;;;;;6.20;3.87;;;;;;;14.59;100.00;99801.47;5086821;28;20234;-76
2022/10/24 05:56:37;;;;;;;5.93;3.30;;;;;;;14.61;100.00;99802.28;5088775;28;20197;-76
2022/10/24 05:59:02;;;;;;;6.87;3.57;;;;;;;14.61;100.00;99807.50;5081709;28;20216;-75
2022/10/24 06:01:28;;;;;;;6.57;3.73;;;;;;;14.62;100.00;99824.81;5086914;28;20223;-78
2022/10/24 06:03:53;;;;;;;8.83;4.10;;;;;;;14.65;100.00;99824.72;5089933;28;20258;-75
2022/10/24 06:06:19;;;;;;;6.80;3.53;;;;;;;14.65;100.00;99827.34;5088291;28;20676;-75
2022/10/24 06:08:44;;;;;;;6.60;4.13;;;;;;;14.66;100.00;99834.25;5086579;28;20186;-76
2022/10/24 06:11:10;;;;;;;6.43;3.37;;;;;;;14.69;100.00;99843.75;5088418;28;20188;-76
2022/10/24 06:13:36;;;;;;;7.30;3.80;;;;;;;14.69;100.00;99834.16;5084658;28;20189;-78
2022/10/24 06:16:02;;;;;;;6.20;3.20;;;;;;;14.70;100.00;99845.44;5084659;28;20208;-77
2022/10/24 06:18:27;;;;;;;6.90;3.43;;;;;;;14.70;100.00;99848.03;5089743;28;20177;-77
2022/10/24 06:20:53;;;;;;;6.57;3.40;;;;;;;14.71;100.00;99847.16;5092118;28;20653;-75
2022/10/24 06:23:18;;;;;;;7.37;3.60;;;;;;;14.72;100.00;99861.88;5092602;28;20189;-76
2022/10/24 06:25:44;;;;;;;5.03;3.33;;;;;;;14.73;100.00;99868.78;5085627;28;20661;-76
2022/10/24 06:28:11;;;;;;;6.13;3.50;;;;;;;14.74;100.00;99867.88;5083619;28;20185;-76
2022/10/24 06:30:38;;;;;;;4.57;2.80;;;;;;;14.74;100.00;99873.09;5087888;28;20189;-77
2022/10/24 06:33:04;;;;;;;5.67;3.10;;;;;;;14.75;100.00;99877.38;5072666;28;20200;-75
2022/10/24 06:35:29;;;;;;;4.57;3.27;;;;;;;14.75;100.00;99879.97;5088437;28;20215;-76
2022/10/24 06:37:54;;;;;;;6.30;3.50;;;;;;;14.74;100.00;99897.38;5088970;28;20223;-76
2022/10/24 06:40:20;;;;;;;5.47;2.80;;;;;;;14.75;100.00;99909.50;5090036;28;20241;-76
2022/10/24 06:42:45;;;;;;;3.60;2.80;;;;;;;14.74;100.00;99899.13;5089604;28;20613;-76
2022/10/24 06:45:11;;;;;;;4.10;2.70;;;;;;;14.75;100.00;99895.59;5089555;28;20541;-76
2022/10/24 06:47:37;;;;;;;4.73;2.70;;;;;;;14.74;100.00;99910.41;5094402;28;20176;-76
2022/10/24 06:50:03;;;;;;;5.10;2.90;;;;;;;14.76;100.00;99899.91;5081705;28;20201;-75
2022/10/24 06:52:29;;;;;;;4.13;2.80;;;;;;;14.76;100.00;99908.59;5087563;28;20633;-77
2022/10/24 06:54:54;;;;;;;3.53;2.63;;;;;;;14.76;100.00;99903.38;5088137;28;20213;-76
2022/10/24 06:57:20;;;;;;;4.57;2.40;;;;;;;14.77;100.00;99883.38;5090522;28;20185;-75
2022/10/24 06:59:45;;;;;;;3.70;2.50;;;;;;;14.77;100.00;99872.97;5090546;28;20228;-75
2022/10/24 07:02:14;;;;;;;4.10;2.47;;;;;;;14.76;100.00;99879.94;5082917;28;20202;-75
2022/10/24 07:04:40;;;;;;;5.77;2.30;;;;;;;14.75;100.00;99893.00;5080975;28;20178;-76
2022/10/24 07:07:06;;;;;;;4.60;2.20;;;;;;;14.75;100.00;99877.38;5073433;28;21049;-77
2022/10/24 07:09:31;;;;;;;6.23;2.50;;;;;;;14.74;100.00;99878.31;5079490;28;20194;-75
2022/10/24 07:11:58;;;;;;;3.87;2.27;;;;;;;14.75;100.00;99885.19;5088682;28;20751;-76
2022/10/24 07:14:24;;;;;;;4.07;2.27;;;;;;;14.76;100.00;99886.91;5089581;28;20226;-77
2022/10/24 07:16:50;;;;;;;3.37;2.50;;;;;;;14.78;100.00;99896.38;5081987;28;20264;-74
2022/10/24 07:19:15;;;;;;;6.70;2.63;;;;;;;14.81;100.00;99907.59;5086676;28;20280;-76
2022/10/24 07:21:41;;;;;;;6.30;2.47;;;;;;;14.84;100.00;99899.66;5088808;28;20249;-76
2022/10/24 07:24:06;;;;;;;3.73;2.20;;;;;;;14.89;100.00;99905.59;5077128;28;21194;-75
2022/10/24 07:26:32;;;;;;;4.73;2.30;;;;;;;14.94;100.00;99903.69;5076466;28;20183;-75
2022/10/24 07:28:59;;;;;;;6.60;2.50;;;;;;;15.02;100.00;99898.22;5073004;28;20197;-74
2022/10/24 07:31:28;;;;;;;5.30;2.77;;;;;;;15.07;100.00;99904.97;5075630;28;20622;-74
2022/10/24 07:33:53;;;;;;;5.10;2.40;;;;;;;15.14;100.00;99899.53;5076526;28;20246;-75
2022/10/24 07:36:21;;;;;;;5.00;2.60;;;;;;;15.22;100.00;99900.16;5075738;28;20206;-78
2022/10/24 07:38:48;;;;;;;4.17;2.57;;;;;;;15.31;100.00;99904.19;5064555;28;20197;-74
2022/10/24 07:41:14;;;;;;;4.83;2.30;;;;;;;15.39;100.00;99912.59;5079362;28;20258;-77
2022/10/24 07:43:39;;;;;;;4.17;2.30;;;;;;;15.47;100.00;99915.78;5072873;28;20190;-74
2022/10/24 07:46:07;;;;;;;2.93;2.07;;;;;;;15.55;100.00;99910.31;5077054;28;20189;-74
2022/10/24 07:48:33;;;;;;;3.10;1.83;;;;;;;15.60;100.00;99899.69;5076738;28;20272;-74
2022/10/24 07:50:58;;;;;;;3.23;2.00;;;;;;;15.65;100.00;99896.00;5077216;28;20279;-75
2022/10/24 07:53:26;;;;;;;2.17;1.97;;;;;;;15.69;100.00;99896.75;5077214;28;20281;-75
2022/10/24 07:55:51;;;;;;;4.00;2.10;;;;;;;15.73;100.00;99895.72;5077549;28;20813;-75
2022/10/24 07:58:16;;;;;;;2.53;2.03;;;;;;;15.77;100.00;99894.72;5081699;28;20194;-75
2022/10/24 08:00:41;;;;;;;4.00;2.00;;;;;;;15.84;100.00;99898.78;5076807;28;20263;-75
2022/10/24 08:03:07;;;;;;;3.63;2.10;;;;;;;15.93;100.00;99899.41;5085726;28;20292;-75
2022/10/24 08:05:32;;;;;;;5.10;2.40;;;;;;;16.03;100.00;99895.53;5078050;28;20187;-75
2022/10/24 08:07:57;;;;;;;4.83;2.43;;;;;;;16.18;100.00;99894.09;5074653;28;20756;-74
2022/10/24 08:10:23;;;;;;;3.63;2.10;;;;;;;16.32;100.00;99892.72;5078076;28;20309;-74
2022/10/24 08:12:48;;;;;;;4.17;2.20;;;;;;;16.46;100.00;99879.97;5076365;28;20213;-74
2022/10/24 08:15:13;;;;;;;5.20;2.10;;;;;;;16.59;100.00;99881.16;5073078;28;20233;-73
2022/10/24 08:17:39;;;;;;;4.07;2.17;;;;;;;16.69;100.00;99896.47;5079969;28;20196;-74
2022/10/24 08:20:06;;;;;;;3.40;1.93;;;;;;;16.73;100.00;99887.59;5074770;28;20191;-75
2022/10/24 08:22:32;;;;;;;3.23;2.27;;;;;;;16.73;100.00;99896.25;5074625;28;20219;-75
2022/10/24 08:24:58;;;;;;;3.87;2.33;;;;;;;16.73;100.00;99900.66;5074539;28;21365;-74
2022/10/24 08:27:24;;;;;;;3.70;2.30;;;;;;;16.71;100.00;99897.25;5078009;28;20622;-75
2022/10/24 08:29:49;;;;;;;4.57;2.70;;;;;;;16.70;100.00;99898.16;5073492;28;20184;-75
2022/10/24 08:32:14;;;;;;;4.53;2.43;;;;;;;16.70;100.00;99895.53;5073120;28;20237;-76
2022/10/24 08:34:40;;;;;;;4.63;2.40;;;;;;;16.70;100.00;99900.78;5071791;28;20327;-75
2022/10/24 08:37:05;;;;;;;4.43;2.00;;;;;;;16.70;100.00;99898.16;5076522;28;20184;-73
2022/10/24 08:39:30;;;;;;;3.40;2.27;;;;;;;16.69;100.00;99892.09;5072808;28;20269;-77
2022/10/24 08:42:01;;;;;;;4.93;2.13;;;;;;;16.71;100.00;99889.41;5076979;28;20284;-75
2022/10/24 08:44:36;;;;;;;3.63;2.20;;;;;;;16.72;100.00;99891.09;5067905;28;20191;-75
2022/10/24 08:47:25;;;;;;;3.77;2.37;;;;;;;16.76;100.00;99896.16;5075858;28;20572;-75
2022/10/24 08:49:57;;;;;;;3.47;2.30;;;;;;;16.81;100.00;99893.34;5080154;28;20189;-76
2022/10/24 08:52:31;;;;;;;4.30;2.27;;;;;;;16.84;100.00;99889.78;5074956;28;20208;-74
2022/10/24 08:55:01;;;;;;;4.67;2.17;;;;;;;16.86;100.00;99896.63;5076567;28;20212;-75
2022/10/24 08:57:29;;;;;;;3.17;2.30;;;;;;;16.88;100.00;99896.53;5084573;28;20197;-75
2022/10/24 09:00:00;;;;;;;4.27;2.33;;;;;;;16.89;100.00;99900.84;5075301;28;20331;-75
2022/10/24 09:02:30;;;;;;;3.17;2.20;;;;;;;16.92;100.00;99888.53;5077188;28;20227;-74
2022/10/24 09:05:01;;;;;;;3.47;2.30;;;;;;;16.97;100.00;99893.59;5077855;28;20197;-75
2022/10/24 09:07:27;;;;;;;5.17;2.40;;;;;;;17.02;100.00;99896.84;5076414;28;20201;-75
2022/10/24 09:10:12;;;;;;;5.20;2.37;;;;;;;17.09;100.00;99907.06;5079398;28;20569;-74
2022/10/24 09:12:38;;;;;;;6.00;2.63;;;;;;;17.15;100.00;99905.03;5079439;28;20238;-74
2022/10/24 09:15:13;;;;;;;4.47;2.33;;;;;;;17.24;100.00;99909.03;5075424;28;20238;-75
2022/10/24 09:17:41;;;;;;;10.03;2.60;;;;;;;17.30;100.00;99894.81;5075263;28;20228;-74
2022/10/24 09:20:24;;;;;;;4.23;2.37;;;;;;;17.36;100.00;99900.63;5075957;28;20675;-74
2022/10/24 09:22:52;;;;;;;5.70;2.50;;;;;;;17.45;100.00;99909.03;5081752;28;20212;-74
2022/10/24 09:25:31;;;;;;;4.67;2.50;;;;;;;17.53;100.00;99914.75;5079073;28;20197;-76
2022/10/24 09:27:59;;;;;;;3.77;2.17;;;;;;;17.59;100.00;99918.88;5072406;28;20534;-73
2022/10/24 09:30:27;;;;;;;4.40;2.23;;;;;;;17.66;100.00;99918.53;5075699;28;20352;-75
2022/10/24 09:32:54;;;;;;;6.63;2.73;;;;;;;17.74;100.00;99933.06;5081814;28;20213;-75
2022/10/24 09:35:23;;;;;;;4.47;2.57;;;;;;;17.82;100.00;99925.69;5086220;28;20197;-75
2022/10/24 09:37:54;;;;;;;2.93;2.20;;;;;;;17.91;100.00;99922.69;5075726;28;20184;-75
2022/10/24 09:40:20;;;;;;;3.73;2.20;;;;;;;18.00;100.00;99931.88;5077751;28;20563;-73
2022/10/24 09:43:11;;;;;;;2.93;2.10;;;;;;;18.08;100.00;99931.53;5080504;28;20234;-72
2022/10/24 09:45:51;;;;;;;5.03;2.23;;;;;;;18.16;100.00;99932.03;5075693;28;20190;-73
2022/10/24 09:48:22;;;;;;;4.33;2.50;;;;;;;18.22;100.00;99928.28;5075204;28;20188;-74
2022/10/24 09:50:50;;;;;;;3.83;2.23;;;;;;;18.27;100.00;99927.16;5079150;28;20269;-75
2022/10/24 09:53:36;;;;;;;4.23;2.40;;;;;;;18.38;100.00;99937.13;5074079;28;20224;-75
2022/10/24 09:56:14;;;;;;;3.47;2.13;;;;;;;18.46;100.00;99938.53;5081146;28;20298;-76
2022/10/24 09:58:40;;;;;;;3.17;2.20;;;;;;;18.53;100.00;99942.56;5074266;28;22106;-75
2022/10/24 10:01:21;;;;;;;2.90;2.37;;;;;;;18.58;100.00;99943.19;5077245;28;20188;-76
2022/10/24 10:04:02;;;;;;;4.60;2.40;;;;;;;18.57;100.00;99942.34;5081352;28;20553;-75
2022/10/24 10:06:27;;;;;;;4.30;2.10;;;;;;;18.55;100.00;99946.81;5077652;28;20231;-76
2022/10/24 10:08:55;;;;;;;2.60;2.10;;;;;;;18.50;100.00;99954.06;5077608;28;20197;-74
2022/10/24 10:11:30;;;;;;;3.47;2.30;;;;;;;18.47;100.00;99945.47;5079270;28;20223;-75
2022/10/24 10:13:59;;;;;;;4.53;2.10;;;;;;;18.49;100.00;99947.09;5079402;28;20273;-75
2022/10/24 10:16:38;;;;;;;3.63;2.10;;;;;;;18.58;100.00;99941.41;5079755;28;20218;-76
2022/10/24 10:19:21;;;;;;;3.87;2.23;;;;;;;18.68;100.00;99949.69;5077658;28;20238;-74
2022/10/24 10:21:59;;;;;;;4.17;2.43;;;;;;;18.76;100.00;99953.69;5075622;28;20218;-74
2022/10/24 10:24:44;;;;;;;4.53;2.10;;;;;;;18.82;100.00;99958.66;5078025;28;20785;-75
2022/10/24 10:27:23;;;;;;;4.00;2.30;;;;;;;18.90;100.00;99961.78;5086148;28;20367;-75
2022/10/24 10:30:06;;;;;;;3.07;2.20;;;;;;;18.99;100.00;99963.97;5081263;28;20192;-75
2022/10/24 10:32:55;;;;;;;3.57;2.20;;;;;;;19.13;100.00;99968.53;5078483;28;20631;-75
2022/10/24 10:35:43;;;;;;;4.23;2.10;;;;;;;19.32;100.00;99972.84;5073907;28;20229;-75
2022/10/24 10:38:26;;;;;;;3.73;2.20;;;;;;;19.46;100.00;99980.00;5083700;28;20185;-74
2022/10/24 10:41:45;;;;;;;2.90;2.20;;;;;;;19.54;100.00;99979.63;5084619;28;20590;-75
2022/10/24 10:44:47;;;;;;;3.57;2.27;;;;;;;19.64;100.00;99988.72;5089282;28;20194;-75
2022/10/24 10:47:34;;;;;;;4.03;2.57;;;;;;;19.79;100.00;99984.44;5080440;28;20178;-76
2022/10/24 10:50:01;;;;;;;5.23;2.40;;;;;;;19.88;100.00;99986.63;5078704;28;20192;-75
2022/10/24 10:52:36;;;;;;;5.07;2.50;;;;;;;19.89;100.00;99985.69;5082292;28;20217;-76
2022/10/24 10:55:13;;;;;;;5.67;2.50;;;;;;;19.85;100.00;99993.78;5072873;28;20295;-75
2022/10/24 10:57:48;;;;;;;3.43;1.97;;;;;;;19.78;100.00;100006.38;5078298;28;20189;-76
2022/10/24 11:00:19;;;;;;;5.03;2.77;;;;;;;19.76;100.00;100009.06;5077020;28;20212;-75
2022/10/24 11:02:57;;;;;;;3.97;2.20;;;;;;;19.75;100.00;100007.38;5080656;28;20260;-75
2022/10/24 11:05:51;;;;;;;5.97;2.70;;;;;;;19.75;100.00;100004.75;5077786;28;20177;-74
2022/10/24 11:08:38;;;;;;;6.17;2.57;;;;;;;19.74;100.00;99996.97;5076585;28;20245;-75
2022/10/24 11:11:11;;;;;;;5.83;2.47;;;;;;;19.73;100.00;99998.75;5071800;28;20185;-75
2022/10/24 11:13:48;;;;;;;4.50;2.60;;;;;;;19.69;100.00;100002.47;5082674;28;20230;-76
2022/10/24 11:16:21;;;;;;;4.03;2.30;;;;;;;19.69;100.00;99999.84;5077855;28;20209;-73
2022/10/24 11:18:51;;;;;;;3.83;2.00;;;;;;;19.75;100.00;100001.28;5081251;28;20245;-76
2022/10/24 11:21:20;;;;;;;5.50;2.73;;;;;;;19.85;100.00;99991.16;5078043;28;20684;-75
2022/10/24 11:23:51;;;;;;;3.63;2.53;;;;;;;19.92;100.00;99990.78;5083480;28;20245;-76
2022/10/24 11:26:25;;;;;;;5.40;2.30;;;;;;;20.00;100.00;99992.13;5074920;28;20193;-75
2022/10/24 11:29:03;;;;;;;5.90;2.53;;;;;;;20.02;100.00;99996.41;5072338;28;20192;-75
2022/10/24 11:31:36;;;;;;;5.00;2.80;;;;;;;20.05;100.00;99995.38;5075726;28;20224;-75
2022/10/24 11:34:31;;;;;;;7.10;3.00;;;;;;;20.12;100.00;99990.66;5077543;28;20188;-76